Time;durP1;ratioP1;P1;durP2;ratioP2;P2;SDS_P1;SDS_P2;PMS_P1;PMS_P2;Temp;Humidity;BMP_temperature;BMP_pressure;BME280_temperature;BME280_humidity;BME280_pressure;Samples;Min_cycle;Max_cycle;Signal;HPM_P1;HPM_P2
2022/01/22 00:00:30;;;;;;;5.38;3.50;;;3.10;99.90;;;;;;4958911;29;20075;-91
2022/01/22 00:02:56;;;;;;;7.57;3.92;;;3.10;99.90;;;;;;4955247;29;20053;-93
2022/01/22 00:05:28;;;;;;;6.05;3.85;;;3.00;99.90;;;;;;4954811;29;20023;-94
2022/01/22 00:07:57;;;;;;;10.77;3.75;;;3.00;99.90;;;;;;4954321;29;20035;-91
2022/01/22 00:10:24;;;;;;;7.97;4.93;;;3.00;99.90;;;;;;4953854;29;20083;-93
2022/01/22 00:15:18;;;;;;;7.97;4.35;;;3.00;99.90;;;;;;4941151;29;20072;-95
2022/01/22 00:17:48;;;;;;;6.97;4.10;;;3.00;99.90;;;;;;4959067;29;20024;-93
2022/01/22 00:20:16;;;;;;;6.18;4.25;;;3.00;99.90;;;;;;4957078;29;20027;-95
2022/01/22 00:22:42;;;;;;;7.28;3.97;;;3.00;99.90;;;;;;4953318;28;20047;-92
2022/01/22 00:25:12;;;;;;;14.20;4.05;;;3.00;99.90;;;;;;4953411;29;20036;-92
2022/01/22 00:27:40;;;;;;;7.13;4.50;;;3.00;99.90;;;;;;4953142;29;20035;-93
2022/01/22 00:30:08;;;;;;;6.00;3.80;;;3.00;99.90;;;;;;4952828;29;20633;-94
2022/01/22 00:32:35;;;;;;;6.80;3.78;;;3.00;99.90;;;;;;4952777;29;20039;-92
2022/01/22 00:35:02;;;;;;;9.60;3.67;;;3.00;99.90;;;;;;4953075;29;20051;-93
2022/01/22 00:37:28;;;;;;;6.65;4.63;;;3.00;99.90;;;;;;4952411;28;20034;-91
2022/01/22 00:39:54;;;;;;;8.10;4.18;;;3.00;99.90;;;;;;4952804;29;20032;-92
2022/01/22 00:42:21;;;;;;;7.18;3.80;;;2.90;99.90;;;;;;4952910;29;20051;-91
2022/01/22 00:44:49;;;;;;;8.25;3.95;;;2.90;99.90;;;;;;4921141;29;20099;-93
2022/01/22 00:47:15;;;;;;;6.85;3.67;;;2.90;99.90;;;;;;4952734;29;20153;-93
2022/01/22 00:49:41;;;;;;;7.85;3.65;;;2.90;99.90;;;;;;4952706;29;20040;-93
2022/01/22 00:52:10;;;;;;;6.53;3.38;;;2.80;99.90;;;;;;4952152;29;20039;-93
2022/01/22 00:54:35;;;;;;;5.53;3.63;;;2.80;99.90;;;;;;4952754;29;20055;-94
2022/01/22 00:57:04;;;;;;;8.07;3.83;;;2.80;99.90;;;;;;4953789;29;20028;-91
2022/01/22 00:59:30;;;;;;;10.30;3.70;;;2.70;99.90;;;;;;4966159;29;20012;-92
2022/01/22 01:01:56;;;;;;;6.13;3.42;;;2.80;99.90;;;;;;4952474;29;20047;-92
2022/01/22 01:04:22;;;;;;;7.60;3.50;;;2.70;99.90;;;;;;4952392;29;20063;-94
2022/01/22 01:06:48;;;;;;;5.07;3.40;;;2.70;99.90;;;;;;4952345;29;20038;-93
2022/01/22 01:09:16;;;;;;;8.23;3.90;;;2.70;99.90;;;;;;4952509;29;20520;-93
2022/01/22 01:11:48;;;;;;;6.28;3.72;;;2.60;99.90;;;;;;4951959;29;20043;-93
2022/01/22 01:14:24;;;;;;;6.00;3.45;;;2.60;99.90;;;;;;4952236;29;20024;-91
2022/01/22 01:33:47;;;;;;;6.35;3.00;;;2.50;99.90;;;;;;4938180;29;20123;-93
2022/01/22 01:36:06;;;;;;;6.35;3.53;;;2.40;99.90;;;;;;4940510;29;20094;-93
2022/01/22 01:38:40;;;;;;;5.97;3.67;;;2.40;99.90;;;;;;4955922;29;20028;-92
2022/01/22 01:41:17;;;;;;;6.68;4.03;;;2.40;99.90;;;;;;4924174;29;20035;-92
2022/01/22 01:43:43;;;;;;;8.45;4.57;;;2.40;99.90;;;;;;4955843;29;20035;-93
2022/01/22 01:46:08;;;;;;;8.57;4.53;;;2.40;99.90;;;;;;4955260;29;20043;-93
2022/01/22 01:48:38;;;;;;;8.25;4.82;;;2.40;99.90;;;;;;4917861;29;20047;-93
2022/01/22 01:51:10;;;;;;;7.95;4.10;;;2.40;99.90;;;;;;4955257;29;20062;-93
2022/01/22 01:57:27;;;;;;;7.22;4.07;;;2.50;99.90;;;;;;4940728;29;20027;-94
2022/01/22 01:58:55;;;;;;;6.85;4.35;;;2.60;99.90;;;;;;4941429;29;20118;-92
2022/01/22 02:01:24;;;;;;;9.07;5.45;;;2.60;99.90;;;;;;4959342;29;20079;-94
2022/01/22 02:03:50;;;;;;;7.25;4.70;;;2.60;99.90;;;;;;4955196;29;20027;-92
2022/01/22 02:06:18;;;;;;;9.15;5.03;;;2.60;99.90;;;;;;4955209;29;20123;-92
2022/01/22 02:08:44;;;;;;;9.13;5.28;;;2.70;99.90;;;;;;4955267;29;20020;-91
2022/01/22 02:11:14;;;;;;;9.48;5.05;;;2.70;99.90;;;;;;4955654;29;20031;-93
2022/01/22 02:24:51;;;;;;;13.27;7.05;;;2.80;99.90;;;;;;4940578;29;20047;-93
2022/01/22 02:27:18;;;;;;;9.80;6.20;;;2.90;99.90;;;;;;4956475;29;20027;-91
2022/01/22 02:29:44;;;;;;;10.15;6.00;;;2.90;99.90;;;;;;4935121;29;20044;-92
2022/01/22 02:35:17;;;;;;;10.80;6.45;;;2.90;99.90;;;;;;4944207;29;20600;-92
2022/01/22 02:37:50;;;;;;;10.25;6.18;;;2.90;99.90;;;;;;4957702;29;20486;-93
2022/01/22 02:40:27;;;;;;;14.93;7.00;;;2.90;99.90;;;;;;4956512;29;20545;-92
2022/01/22 02:42:55;;;;;;;10.45;6.43;;;2.90;99.90;;;;;;4955344;29;20043;-92
2022/01/22 02:45:23;;;;;;;11.43;6.95;;;2.90;99.90;;;;;;4923012;29;20087;-93
2022/01/22 02:47:50;;;;;;;11.63;6.32;;;2.90;99.90;;;;;;4955280;29;20039;-93
2022/01/22 02:50:17;;;;;;;13.63;6.90;;;2.90;99.90;;;;;;4955448;28;20032;-94
2022/01/22 02:52:43;;;;;;;9.30;6.07;;;2.90;99.90;;;;;;4955302;29;20043;-92
2022/01/22 02:55:11;;;;;;;9.98;6.10;;;2.90;99.90;;;;;;4955984;29;20027;-93
2022/01/22 02:57:40;;;;;;;9.23;5.65;;;2.90;99.90;;;;;;4956802;29;20038;-93
2022/01/22 03:00:10;;;;;;;8.02;4.72;;;2.90;99.90;;;;;;4956049;29;20419;-92
2022/01/22 03:02:37;;;;;;;11.70;6.50;;;2.90;99.90;;;;;;4956320;29;20059;-94
2022/01/22 03:05:04;;;;;;;12.20;5.55;;;3.00;99.90;;;;;;4922655;29;20059;-92
2022/01/22 03:07:30;;;;;;;12.70;6.85;;;3.00;99.90;;;;;;4954204;29;20024;-91
2022/01/22 03:10:01;;;;;;;10.70;6.43;;;3.10;99.90;;;;;;4954444;29;20027;-92
2022/01/22 03:17:52;;;;;;;9.30;5.10;;;3.10;99.90;;;;;;4939322;29;20034;-92
2022/01/22 03:20:39;;;;;;;8.85;5.63;;;3.10;99.90;;;;;;4954462;29;20032;-92
2022/01/22 03:23:09;;;;;;;10.13;6.18;;;3.10;99.90;;;;;;4938998;29;20028;-91
2022/01/22 03:28:24;;;;;;;7.25;4.78;;;3.10;99.90;;;;;;4938978;29;20095;-92
2022/01/22 03:30:51;;;;;;;6.85;4.43;;;3.20;99.90;;;;;;4953637;29;20497;-91
2022/01/22 03:33:20;;;;;;;8.07;4.95;;;3.30;99.90;;;;;;4953893;29;20040;-92
2022/01/22 03:35:53;;;;;;;7.68;4.30;;;3.30;99.90;;;;;;4953821;29;20024;-92
2022/01/22 03:38:19;;;;;;;8.20;3.63;;;3.40;99.90;;;;;;4954038;29;20410;-93
2022/01/22 03:40:49;;;;;;;6.32;3.67;;;3.40;99.90;;;;;;4953851;29;20030;-94
2022/01/22 03:43:15;;;;;;;6.47;3.23;;;3.40;99.90;;;;;;4954298;29;20063;-93
2022/01/22 03:45:49;;;;;;;5.32;3.35;;;3.50;99.90;;;;;;4923215;29;20027;-92
2022/01/22 03:48:14;;;;;;;5.88;2.85;;;3.50;99.90;;;;;;4953279;29;20047;-90
2022/01/22 03:50:41;;;;;;;4.40;2.67;;;3.60;99.90;;;;;;4953604;29;20031;-91
2022/01/22 03:53:07;;;;;;;2.75;1.80;;;3.60;99.90;;;;;;4953578;29;20102;-91
2022/01/22 03:58:02;;;;;;;2.83;1.80;;;3.70;99.90;;;;;;4952982;29;20063;-91
2022/01/22 04:00:28;;;;;;;3.08;2.17;;;3.70;99.90;;;;;;4955253;29;20067;-91
2022/01/22 04:05:41;;;;;;;4.88;2.55;;;3.80;99.90;;;;;;4938645;29;20059;-93
2022/01/22 04:08:13;;;;;;;4.18;2.58;;;3.80;99.90;;;;;;4953366;29;20047;-93
2022/01/22 04:10:38;;;;;;;3.30;2.35;;;3.70;99.90;;;;;;4953109;29;20474;-94
2022/01/22 04:13:11;;;;;;;5.65;2.67;;;3.70;99.90;;;;;;4952994;29;20040;-93
2022/01/22 04:15:39;;;;;;;5.57;2.42;;;3.70;99.90;;;;;;4952931;29;20071;-93
2022/01/22 04:28:56;;;;;;;5.05;2.55;;;3.60;99.90;;;;;;4938013;29;20138;-95
2022/01/22 04:31:22;;;;;;;4.60;2.28;;;3.60;99.90;;;;;;4952460;29;20035;-92
2022/01/22 04:33:48;;;;;;;3.25;1.80;;;3.70;99.90;;;;;;4952708;29;20086;-94
2022/01/22 04:36:14;;;;;;;2.95;2.03;;;3.70;99.90;;;;;;4953039;29;20035;-92
2022/01/22 04:38:40;;;;;;;2.58;1.92;;;3.80;99.90;;;;;;4952401;29;20134;-94
2022/01/22 04:41:06;;;;;;;2.58;1.95;;;3.80;99.90;;;;;;4952899;29;20031;-94
2022/01/22 04:43:34;;;;;;;2.00;1.63;;;3.80;99.90;;;;;;4952888;29;20031;-93
2022/01/22 04:49:06;;;;;;;2.38;1.70;;;3.90;99.90;;;;;;4937561;29;20062;-92
2022/01/22 04:57:01;;;;;;;3.67;1.70;;;4.00;99.90;;;;;;4938217;29;20451;-93
2022/01/22 04:59:26;;;;;;;2.75;2.13;;;4.00;99.90;;;;;;4953128;29;20043;-91
2022/01/22 05:01:52;;;;;;;2.47;1.95;;;4.00;99.90;;;;;;4953151;29;20114;-92
2022/01/22 05:04:18;;;;;;;2.28;2.03;;;4.00;99.90;;;;;;4956366;29;20023;-94
2022/01/22 05:06:47;;;;;;;2.83;2.00;;;4.00;99.90;;;;;;4957477;29;20028;-92
2022/01/22 05:09:13;;;;;;;2.70;1.98;;;4.10;99.90;;;;;;4956303;29;20035;-92
2022/01/22 05:11:45;;;;;;;5.00;2.33;;;4.10;99.90;;;;;;4955200;29;20039;-92
2022/01/22 05:14:11;;;;;;;2.35;1.80;;;4.10;99.90;;;;;;4953303;29;20393;-92
2022/01/22 05:16:37;;;;;;;2.00;1.55;;;4.20;99.90;;;;;;4953166;29;20042;-95
2022/01/22 05:19:19;;;;;;;2.47;1.55;;;4.10;99.90;;;;;;4952674;29;20024;-93
2022/01/22 05:21:49;;;;;;;2.33;1.77;;;4.20;99.90;;;;;;4952168;29;20399;-93
2022/01/22 05:24:23;;;;;;;1.75;1.42;;;4.20;99.90;;;;;;4952928;29;20067;-93
2022/01/22 05:27:15;;;;;;;4.05;1.65;;;4.20;99.90;;;;;;4960575;29;20052;-93
2022/01/22 05:37:32;;;;;;;3.67;2.10;;;4.20;99.90;;;;;;4938607;29;20035;-94
2022/01/22 05:39:58;;;;;;;3.63;2.03;;;4.30;99.90;;;;;;4952757;29;20024;-91
2022/01/22 05:42:24;;;;;;;3.60;2.35;;;4.20;99.90;;;;;;4952417;29;20050;-92
2022/01/22 05:44:50;;;;;;;4.95;2.25;;;4.20;99.90;;;;;;4951946;29;20439;-92
2022/01/22 05:47:22;;;;;;;7.78;2.47;;;4.20;99.90;;;;;;4951451;29;20044;-94
2022/01/22 05:49:48;;;;;;;3.70;2.40;;;4.20;99.90;;;;;;4952072;29;20028;-93
2022/01/22 05:52:19;;;;;;;4.72;2.67;;;4.20;99.90;;;;;;4952105;29;20063;-93
2022/01/22 05:59:55;;;;;;;9.35;3.40;;;4.30;99.90;;;;;;4937170;29;20086;-93
2022/01/22 06:02:24;;;;;;;3.67;2.40;;;4.30;99.90;;;;;;4952100;29;20035;-93
2022/01/22 06:04:56;;;;;;;5.43;2.75;;;4.30;99.90;;;;;;4951801;29;20028;-93
2022/01/22 06:07:22;;;;;;;5.47;2.83;;;4.30;99.90;;;;;;4951986;29;20051;-93
2022/01/22 06:10:15;;;;;;;4.40;2.80;;;4.30;99.90;;;;;;4951621;29;20043;-92
2022/01/22 06:15:20;;;;;;;4.60;3.13;;;4.30;99.90;;;;;;4937005;29;20036;-93
2022/01/22 06:17:45;;;;;;;8.00;3.30;;;4.30;99.90;;;;;;4951847;29;20032;-94
2022/01/22 06:20:15;;;;;;;8.15;3.03;;;4.30;99.90;;;;;;4953837;28;20032;-92
2022/01/22 06:22:47;;;;;;;5.07;3.30;;;4.20;99.90;;;;;;4955154;29;20486;-93
2022/01/22 06:25:13;;;;;;;4.97;3.10;;;4.20;99.90;;;;;;4955254;29;20031;-92
2022/01/22 06:27:39;;;;;;;5.68;3.05;;;4.20;99.90;;;;;;4954960;29;20036;-93
2022/01/22 06:30:07;;;;;;;7.57;3.40;;;4.30;99.90;;;;;;4923140;29;20050;-91
2022/01/22 06:32:36;;;;;;;5.88;4.13;;;4.30;99.90;;;;;;4954986;29;20043;-92
2022/01/22 06:35:02;;;;;;;4.18;3.13;;;4.40;99.90;;;;;;4954831;29;20034;-92
2022/01/22 06:37:27;;;;;;;5.63;3.40;;;4.40;99.90;;;;;;4955199;29;20488;-92
2022/01/22 06:41:44;;;;;;;6.53;3.35;;;4.40;99.90;;;;;;4954952;29;20062;-91
2022/01/22 06:42:42;;;;;;;6.15;3.22;;;4.40;99.90;;;;;;4940770;29;20043;-92
2022/01/22 06:45:08;;;;;;;4.55;2.75;;;4.50;99.90;;;;;;4955155;29;20481;-94
2022/01/22 06:47:35;;;;;;;6.85;3.28;;;4.50;99.90;;;;;;4954250;29;20044;-95
2022/01/22 06:50:02;;;;;;;5.85;3.45;;;4.50;99.90;;;;;;4954484;29;20039;-93
2022/01/22 06:52:31;;;;;;;3.47;2.42;;;4.50;99.90;;;;;;4954415;29;20043;-92
2022/01/22 06:54:57;;;;;;;4.20;2.65;;;4.50;99.90;;;;;;4956914;29;20055;-92
2022/01/22 06:57:25;;;;;;;4.95;3.42;;;4.50;99.90;;;;;;4958228;28;20039;-92
2022/01/22 06:59:54;;;;;;;4.45;2.83;;;4.50;99.90;;;;;;4925322;29;20035;-93
2022/01/22 07:02:23;;;;;;;4.35;2.75;;;4.50;99.90;;;;;;4954934;29;20118;-94
2022/01/22 07:04:48;;;;;;;9.00;3.78;;;4.50;99.90;;;;;;4954815;29;20020;-94
2022/01/22 07:07:14;;;;;;;4.50;2.42;;;4.50;99.90;;;;;;4954477;29;20473;-91
2022/01/22 07:09:40;;;;;;;5.78;2.65;;;4.50;99.90;;;;;;4954757;29;20122;-93
2022/01/22 07:12:15;;;;;;;5.93;3.08;;;4.50;99.90;;;;;;4961509;29;20059;-93
2022/01/22 07:14:50;;;;;;;5.22;2.70;;;4.50;99.90;;;;;;4956823;29;20028;-92
2022/01/22 07:17:16;;;;;;;8.75;3.10;;;4.50;99.90;;;;;;4954108;29;20161;-92
2022/01/22 07:19:46;;;;;;;3.42;2.30;;;4.50;99.90;;;;;;4954828;29;20027;-92
2022/01/22 07:22:36;;;;;;;5.80;2.90;;;4.50;99.90;;;;;;4923288;29;20537;-93
2022/01/22 07:25:02;;;;;;;8.80;3.08;;;4.50;99.90;;;;;;4953939;29;20119;-91
2022/01/22 07:27:28;;;;;;;6.38;3.08;;;4.50;99.90;;;;;;4954405;29;20044;-91
2022/01/22 07:29:54;;;;;;;5.85;3.17;;;4.50;99.90;;;;;;4954303;29;20027;-92
2022/01/22 07:32:33;;;;;;;8.07;4.03;;;4.40;99.90;;;;;;4953226;29;20040;-93
2022/01/22 07:34:59;;;;;;;5.03;3.05;;;4.40;99.90;;;;;;4954597;29;20394;-92
2022/01/22 07:37:27;;;;;;;5.57;2.90;;;4.30;99.90;;;;;;4954460;29;20043;-93
2022/01/22 07:39:53;;;;;;;9.18;3.42;;;4.30;99.90;;;;;;4954452;29;20162;-92
2022/01/22 07:42:22;;;;;;;8.65;3.72;;;4.30;99.90;;;;;;4959358;29;20028;-91
2022/01/22 07:44:48;;;;;;;5.55;2.95;;;4.40;99.90;;;;;;4961045;29;20028;-90
2022/01/22 07:47:13;;;;;;;7.03;3.47;;;4.40;99.90;;;;;;4927977;29;20067;-92
2022/01/22 07:49:40;;;;;;;9.10;3.13;;;4.30;99.90;;;;;;4959982;29;20095;-93
2022/01/22 07:52:06;;;;;;;6.88;3.10;;;4.30;99.90;;;;;;4955642;29;20047;-92
2022/01/22 07:54:33;;;;;;;4.53;2.28;;;4.30;99.90;;;;;;4956220;29;20027;-93
2022/01/22 07:57:01;;;;;;;7.65;3.15;;;4.30;99.90;;;;;;4956351;29;20437;-93
2022/01/22 07:59:27;;;;;;;6.30;2.47;;;4.30;99.90;;;;;;4958203;29;20393;-92
2022/01/22 08:01:53;;;;;;;6.20;2.85;;;4.30;99.90;;;;;;4955321;28;20031;-92
2022/01/22 08:04:23;;;;;;;8.88;3.15;;;4.20;99.90;;;;;;4955090;29;20433;-92
2022/01/22 08:06:50;;;;;;;12.48;2.67;;;4.20;99.90;;;;;;4954313;29;20031;-93
2022/01/22 08:09:23;;;;;;;6.60;2.53;;;4.20;99.90;;;;;;4955187;29;20028;-94
2022/01/22 08:11:49;;;;;;;8.68;2.60;;;4.10;99.90;;;;;;4956724;29;20058;-93
2022/01/22 08:14:15;;;;;;;5.97;2.22;;;4.10;99.90;;;;;;4960411;29;20020;-91
2022/01/22 08:16:41;;;;;;;6.80;2.40;;;4.00;99.90;;;;;;4958226;29;20028;-91
2022/01/22 08:19:07;;;;;;;3.88;2.42;;;4.00;99.90;;;;;;4955484;29;20482;-90
2022/01/22 08:21:33;;;;;;;6.45;2.60;;;4.00;99.90;;;;;;4923341;29;20035;-92
2022/01/22 08:23:59;;;;;;;5.90;2.38;;;4.00;99.90;;;;;;4967232;29;20083;-91
2022/01/22 08:26:29;;;;;;;5.53;2.17;;;4.00;99.90;;;;;;4961753;29;20027;-90
2022/01/22 08:29:00;;;;;;;6.82;2.85;;;4.00;99.90;;;;;;4954356;29;20081;-91
2022/01/22 08:36:41;;;;;;;5.05;2.30;;;4.10;99.90;;;;;;4940106;29;20079;-92
2022/01/22 08:39:07;;;;;;;3.97;2.10;;;4.10;99.90;;;;;;4955806;29;20024;-93
2022/01/22 08:41:36;;;;;;;5.40;2.20;;;4.10;99.90;;;;;;4957416;29;20099;-94
2022/01/22 08:44:05;;;;;;;6.35;2.38;;;4.10;99.90;;;;;;4924659;29;20150;-93
2022/01/22 08:46:32;;;;;;;7.43;2.78;;;4.10;99.90;;;;;;4960977;29;20031;-92
2022/01/22 08:48:58;;;;;;;8.48;4.03;;;4.10;99.90;;;;;;4941382;29;20043;-94
2022/01/22 08:51:24;;;;;;;19.85;3.60;;;4.20;99.90;;;;;;4957038;29;20031;-93
2022/01/22 08:53:50;;;;;;;5.53;2.97;;;4.20;99.90;;;;;;4968826;29;20036;-93
2022/01/22 08:56:19;;;;;;;14.85;3.60;;;4.20;99.90;;;;;;4941697;29;20056;-92
2022/01/22 08:58:45;;;;;;;5.07;2.47;;;4.20;99.90;;;;;;4971171;29;20027;-94
2022/01/22 09:01:11;;;;;;;6.72;2.60;;;4.20;99.90;;;;;;4971778;29;20020;-94
2022/01/22 09:03:37;;;;;;;5.25;2.10;;;4.20;99.90;;;;;;4953269;29;20040;-92
2022/01/22 09:06:07;;;;;;;13.13;2.90;;;4.20;99.90;;;;;;4953060;29;20401;-94
2022/01/22 09:08:34;;;;;;;5.22;2.70;;;4.20;99.90;;;;;;4953160;29;20460;-94
2022/01/22 09:11:00;;;;;;;4.55;2.33;;;4.20;99.90;;;;;;4952785;29;20063;-93
2022/01/22 09:13:27;;;;;;;5.43;2.17;;;4.20;99.90;;;;;;4920974;29;20032;-94
2022/01/22 09:15:57;;;;;;;6.30;2.28;;;4.30;99.90;;;;;;4952844;29;20034;-95
2022/01/22 09:18:29;;;;;;;5.10;2.20;;;4.30;99.90;;;;;;4953022;29;20058;-93
2022/01/22 09:21:02;;;;;;;9.07;2.80;;;4.40;99.90;;;;;;4952894;29;20561;-93
2022/01/22 09:23:36;;;;;;;5.93;2.80;;;4.40;99.90;;;;;;4955949;29;20248;-93
2022/01/22 09:26:10;;;;;;;13.50;3.38;;;4.50;99.90;;;;;;4927275;29;20158;-91
2022/01/22 09:28:39;;;;;;;5.72;2.90;;;4.50;99.90;;;;;;4921624;29;20047;-93
2022/01/22 09:31:05;;;;;;;9.00;3.00;;;4.60;99.90;;;;;;4955614;29;20043;-92
2022/01/22 09:33:31;;;;;;;8.32;2.88;;;4.80;99.90;;;;;;4972140;29;20055;-92
2022/01/22 09:36:00;;;;;;;10.43;3.22;;;4.90;99.90;;;;;;4970344;28;20036;-91
2022/01/22 09:38:26;;;;;;;9.00;3.70;;;5.10;99.90;;;;;;4955441;29;20099;-91
2022/01/22 09:40:57;;;;;;;5.45;3.08;;;5.40;99.90;;;;;;4954940;29;20502;-93
2022/01/22 09:43:25;;;;;;;10.65;3.08;;;5.60;99.90;;;;;;4938922;29;20039;-94
2022/01/22 09:45:51;;;;;;;6.63;2.10;;;5.90;99.90;;;;;;4922876;29;20067;-92
2022/01/22 09:48:19;;;;;;;8.32;2.10;;;6.10;99.90;;;;;;4954343;29;20103;-92
2022/01/22 09:50:45;;;;;;;5.80;2.22;;;6.40;99.90;;;;;;4953195;29;20044;-92
2022/01/22 09:53:13;;;;;;;6.72;2.33;;;6.70;99.90;;;;;;4955697;29;20036;-93
2022/01/22 09:55:42;;;;;;;8.23;2.20;;;7.00;99.90;;;;;;4930234;29;20034;-90
2022/01/22 09:58:07;;;;;;;7.47;2.10;;;7.30;99.90;;;;;;4957686;29;20114;-93
2022/01/22 10:00:36;;;;;;;3.33;1.90;;;7.60;99.90;;;;;;4960064;29;20043;-92
2022/01/22 10:03:01;;;;;;;6.53;1.80;;;7.90;99.90;;;;;;4961141;29;20261;-92
2022/01/22 10:05:30;;;;;;;6.78;1.70;;;8.30;99.90;;;;;;4957576;29;20089;-92
2022/01/22 10:08:19;;;;;;;5.97;1.75;;;8.60;99.90;;;;;;4957385;29;20082;-92
2022/01/22 10:10:51;;;;;;;4.32;1.65;;;9.00;99.90;;;;;;4957052;29;20040;-93
2022/01/22 10:13:42;;;;;;;4.28;1.50;;;9.30;99.90;;;;;;4960300;29;20092;-92
2022/01/22 10:16:26;;;;;;;5.05;1.27;;;9.70;99.90;;;;;;4957839;29;20122;-93
2022/01/22 10:19:11;;;;;;;7.20;1.45;;;10.00;99.90;;;;;;4957438;28;20102;-92
2022/01/22 10:21:42;;;;;;;2.97;1.50;;;10.40;99.90;;;;;;4957197;29;20024;-92
2022/01/22 10:24:28;;;;;;;6.05;1.70;;;10.70;99.90;;;;;;4957400;29;20167;-93
2022/01/22 10:27:25;;;;;;;5.43;1.20;;;11.00;99.90;;;;;;4957159;29;20028;-93
2022/01/22 10:30:11;;;;;;;3.58;1.42;;;11.30;99.90;;;;;;4957132;29;20057;-92
2022/01/22 10:35:29;;;;;;;3.17;1.40;;;11.80;99.90;;;;;;4942685;29;20482;-91
2022/01/22 10:37:58;;;;;;;2.72;1.30;;;12.00;99.90;;;;;;4958230;29;20024;-93
2022/01/22 10:40:31;;;;;;;7.90;1.52;;;12.30;99.90;;;;;;4959099;29;20031;-93
2022/01/22 10:43:28;;;;;;;8.95;1.70;;;12.40;99.00;;;;;;4964740;29;20137;-95
2022/01/22 10:46:20;;;;;;;3.75;1.42;;;12.40;97.30;;;;;;4957789;29;20039;-92
2022/01/22 10:49:08;;;;;;;5.88;1.60;;;12.50;96.90;;;;;;4965363;29;20057;-94
2022/01/22 10:51:50;;;;;;;5.38;1.10;;;12.60;95.80;;;;;;4959853;29;20040;-94
2022/01/22 10:54:21;;;;;;;3.28;1.48;;;12.70;95.00;;;;;;4961803;29;20559;-94
2022/01/22 10:56:47;;;;;;;3.10;1.10;;;12.80;93.90;;;;;;4926855;29;20051;-91
2022/01/22 10:59:16;;;;;;;4.93;1.20;;;12.80;93.90;;;;;;4956787;29;20032;-92
2022/01/22 11:01:48;;;;;;;4.53;1.10;;;12.90;93.30;;;;;;4958990;29;20038;-94
2022/01/22 11:04:17;;;;;;;4.32;1.30;;;13.00;92.40;;;;;;4956683;29;20496;-91
2022/01/22 11:06:51;;;;;;;4.07;1.30;;;13.10;91.70;;;;;;4956164;28;20036;-93
2022/01/22 11:09:21;;;;;;;4.30;1.15;;;13.30;91.00;;;;;;4955903;29;20028;-93
2022/01/22 11:11:48;;;;;;;3.58;1.27;;;13.30;90.60;;;;;;4955946;29;20050;-94
2022/01/22 11:14:14;;;;;;;2.83;1.20;;;13.40;90.30;;;;;;4923588;29;20027;-94
2022/01/22 11:16:43;;;;;;;2.83;1.10;;;13.60;89.60;;;;;;4955998;29;20083;-93
2022/01/22 11:19:11;;;;;;;4.18;1.40;;;13.90;88.10;;;;;;4961115;29;20079;-94
2022/01/22 11:21:41;;;;;;;6.15;1.77;;;13.90;86.10;;;;;;4961028;29;20068;-94
2022/01/22 11:24:12;;;;;;;5.68;1.17;;;14.00;85.30;;;;;;4969684;29;20118;-94
2022/01/22 11:26:39;;;;;;;4.80;1.63;;;14.00;84.10;;;;;;4961839;28;20027;-93
2022/01/22 11:29:06;;;;;;;6.85;1.63;;;14.20;83.80;;;;;;4961555;29;20036;-92
2022/01/22 11:31:33;;;;;;;3.53;1.10;;;14.20;82.50;;;;;;4961932;29;20367;-93
2022/01/22 11:34:00;;;;;;;3.53;1.65;;;14.30;82.20;;;;;;4960564;29;20024;-93
2022/01/22 11:36:53;;;;;;;2.65;1.02;;;14.40;81.30;;;;;;4965865;29;20033;-93
2022/01/22 11:39:23;;;;;;;4.43;1.30;;;14.60;80.80;;;;;;4974335;29;20011;-95
2022/01/22 11:41:58;;;;;;;4.57;1.65;;;14.70;79.20;;;;;;4942744;29;20135;-95
2022/01/22 11:44:33;;;;;;;2.50;1.00;;;14.80;79.00;;;;;;4963279;29;20223;-95
2022/01/22 11:47:23;;;;;;;7.55;1.40;;;15.00;78.50;;;;;;4972630;29;20032;-94
2022/01/22 11:50:22;;;;;;;5.50;1.13;;;15.40;77.50;;;;;;4971140;29;20128;-95
2022/01/22 11:52:48;;;;;;;6.43;1.27;;;15.60;76.10;;;;;;4902426;29;20039;-93
2022/01/22 11:55:17;;;;;;;4.82;1.58;;;15.70;75.40;;;;;;4942767;29;20020;-94
2022/01/22 11:57:44;;;;;;;4.68;1.70;;;16.00;74.70;;;;;;4975011;29;20225;-96
2022/01/22 12:00:22;;;;;;;4.68;1.70;;;16.10;74.00;;;;;;4942716;29;20091;-95
2022/01/22 12:03:08;;;;;;;3.17;1.40;;;16.00;73.30;;;;;;4974027;29;20023;-94
2022/01/22 12:05:54;;;;;;;6.20;2.08;;;15.80;73.40;;;;;;4932532;29;20055;-95
2022/01/22 12:08:23;;;;;;;3.63;1.17;;;15.70;73.50;;;;;;4973155;28;20154;-94
2022/01/22 12:16:44;;;;;;;3.95;1.80;;;15.90;73.30;;;;;;4941800;29;20464;-94
2022/01/22 12:19:42;;;;;;;9.25;3.15;;;15.70;72.30;;;;;;4956930;29;20040;-95
2022/01/22 12:22:35;;;;;;;6.60;1.80;;;15.20;72.60;;;;;;4956659;29;20051;-95
2022/01/22 12:25:10;;;;;;;4.95;1.75;;;14.80;73.80;;;;;;4964960;29;20076;-95
2022/01/22 12:27:43;;;;;;;4.90;1.60;;;14.60;74.80;;;;;;4969411;29;20486;-95
2022/01/22 12:30:09;;;;;;;3.67;1.33;;;14.70;75.20;;;;;;4967999;29;20035;-96
2022/01/22 12:32:47;;;;;;;4.57;1.45;;;14.80;75.30;;;;;;4964779;29;20043;-95
2022/01/22 12:35:34;;;;;;;3.90;1.60;;;14.60;74.60;;;;;;4936136;29;20055;-94
2022/01/22 12:38:51;;;;;;;5.32;1.73;;;14.10;74.70;;;;;;4957656;29;20171;-96
2022/01/22 12:44:06;;;;;;;6.32;1.95;;;12.80;77.60;;;;;;4941061;29;20035;-94
2022/01/22 12:46:32;;;;;;;2.88;1.70;;;12.40;79.10;;;;;;4955178;29;20032;-94
2022/01/22 12:49:00;;;;;;;6.10;1.67;;;12.00;80.20;;;;;;4954431;29;20059;-94
2022/01/22 12:51:26;;;;;;;2.35;1.73;;;11.80;81.30;;;;;;4943552;29;20165;-93
2022/01/22 12:53:52;;;;;;;6.68;2.00;;;11.60;82.30;;;;;;4973547;29;20012;-92
2022/01/22 12:59:08;;;;;;;6.55;2.03;;;11.20;83.80;;;;;;4940739;29;20157;-93
2022/01/22 13:01:42;;;;;;;3.60;1.73;;;10.90;84.50;;;;;;4959873;29;20028;-94
2022/01/22 13:04:09;;;;;;;4.75;2.00;;;10.70;85.60;;;;;;4957055;29;20032;-95
2022/01/22 13:06:45;;;;;;;5.88;2.40;;;10.40;86.40;;;;;;4956531;29;20023;-96
2022/01/22 13:09:12;;;;;;;2.90;1.67;;;10.30;87.50;;;;;;4924976;29;20115;-95
2022/01/22 13:11:46;;;;;;;5.80;1.98;;;10.20;88.40;;;;;;4955075;29;20024;-94
2022/01/22 13:14:18;;;;;;;4.88;1.98;;;10.00;90.00;;;;;;4962526;29;20032;-93
2022/01/22 13:16:49;;;;;;;3.90;1.70;;;9.90;90.00;;;;;;4960312;29;20028;-94
2022/01/22 13:19:17;;;;;;;7.68;1.98;;;9.80;90.40;;;;;;4956455;29;20047;-96
2022/01/22 13:21:52;;;;;;;3.55;1.75;;;9.70;90.80;;;;;;4960696;29;20198;-95
2022/01/22 13:24:23;;;;;;;3.60;1.67;;;9.60;91.30;;;;;;4955338;29;20024;-95
2022/01/22 13:27:17;;;;;;;6.55;2.00;;;9.50;91.80;;;;;;4925650;29;20031;-92
2022/01/22 13:29:52;;;;;;;9.00;2.70;;;9.50;92.00;;;;;;4943463;28;20028;-94
2022/01/22 13:41:05;;;;;;;6.50;1.52;;;9.20;93.30;;;;;;4942751;29;20046;-94
2022/01/22 13:49:25;;;;;;;3.15;1.55;;;8.90;94.70;;;;;;4942325;29;20477;-93
2022/01/22 13:51:51;;;;;;;5.15;1.20;;;8.80;95.20;;;;;;4957206;29;20478;-93
2022/01/22 13:54:17;;;;;;;3.08;1.40;;;8.80;95.60;;;;;;4956631;29;20132;-95
2022/01/22 13:56:57;;;;;;;3.17;1.30;;;8.70;95.90;;;;;;4925113;29;20039;-94
2022/01/22 13:59:46;;;;;;;4.15;1.33;;;8.70;96.20;;;;;;4957033;29;20032;-95
2022/01/22 14:04:52;;;;;;;3.70;1.27;;;8.70;96.70;;;;;;4942082;29;20055;-94
2022/01/22 14:07:27;;;;;;;2.70;1.23;;;8.70;97.00;;;;;;4963378;29;20027;-94
2022/01/22 14:10:09;;;;;;;3.25;1.20;;;8.70;97.20;;;;;;4958140;29;20024;-96
2022/01/22 14:12:43;;;;;;;2.03;1.15;;;8.70;97.60;;;;;;4956933;29;20067;-95
2022/01/22 14:15:27;;;;;;;2.45;1.10;;;8.60;97.90;;;;;;4956866;29;20110;-94
2022/01/22 14:20:40;;;;;;;3.65;1.15;;;8.40;98.80;;;;;;4944122;29;20042;-94
2022/01/22 14:23:29;;;;;;;2.10;1.17;;;8.40;99.30;;;;;;4971017;29;20015;-93
2022/01/22 14:26:11;;;;;;;2.33;1.45;;;8.30;99.70;;;;;;4969024;29;20036;-94
2022/01/22 14:28:52;;;;;;;2.97;1.30;;;8.30;99.90;;;;;;4924602;29;20031;-93
2022/01/22 14:31:25;;;;;;;;;;;8.30;99.90;;;;;;4956793;29;20028;-95
2022/01/22 14:33:52;;;;;;;2.28;1.60;;;8.30;99.90;;;;;;4924987;29;19915;-95
2022/01/22 14:36:21;;;;;;;3.97;1.73;;;8.30;99.90;;;;;;4956542;29;20051;-94
2022/01/22 14:38:53;;;;;;;2.33;1.38;;;8.20;99.90;;;;;;4956057;28;20034;-92
2022/01/22 14:44:26;;;;;;;3.45;1.65;;;8.20;99.90;;;;;;4941373;29;20060;-93
2022/01/22 14:46:57;;;;;;;3.55;1.50;;;8.20;99.90;;;;;;4955910;29;20038;-92
2022/01/22 14:49:24;;;;;;;;;;;8.10;99.90;;;;;;4955969;29;20043;-96
2022/01/22 14:51:49;;;;;;;4.65;1.23;;;8.00;99.90;;;;;;4923565;29;19922;-92
2022/01/22 14:54:19;;;;;;;6.47;1.48;;;8.00;99.90;;;;;;4923764;29;20386;-94
2022/01/22 14:56:45;;;;;;;2.65;1.30;;;8.00;99.90;;;;;;4956523;29;20055;-93
2022/01/22 14:59:10;;;;;;;2.97;0.85;;;7.90;99.90;;;;;;4956011;29;20497;-93
2022/01/22 15:01:36;;;;;;;1.40;1.10;;;7.90;99.90;;;;;;4956003;29;20035;-94
2022/01/22 15:04:02;;;;;;;1.45;0.75;;;7.90;99.90;;;;;;4956021;29;20038;-95
2022/01/22 15:06:28;;;;;;;1.88;1.23;;;7.90;99.90;;;;;;4957433;29;20214;-93
2022/01/22 15:08:53;;;;;;;3.35;1.50;;;7.90;99.90;;;;;;4963144;29;20032;-93
2022/01/22 15:11:20;;;;;;;2.90;1.10;;;7.80;99.90;;;;;;4956116;29;20075;-92
2022/01/22 15:13:46;;;;;;;2.15;1.67;;;7.80;99.90;;;;;;4954433;28;20094;-93
2022/01/22 15:16:17;;;;;;;5.18;1.50;;;7.70;99.90;;;;;;4955140;29;20028;-95
2022/01/22 15:18:59;;;;;;;3.63;1.65;;;7.70;99.90;;;;;;4958544;29;20145;-94